createdAt,value
2024-04-26T00:02:12.115Z,36.60
2024-04-26T00:07:17.050Z,36.20
2024-04-26T00:12:25.917Z,36.20
2024-04-26T00:17:31.196Z,36.60
2024-04-26T00:22:36.127Z,36.40
2024-04-26T00:27:43.687Z,36.50
2024-04-26T00:32:49.580Z,36.90
2024-04-26T00:37:54.635Z,36.70
2024-04-26T00:43:02.222Z,36.70
2024-04-26T00:48:07.642Z,36.90
2024-04-26T00:53:12.636Z,36.60
2024-04-26T00:58:21.464Z,36.60
2024-04-26T01:03:26.774Z,37.20
2024-04-26T01:08:32.546Z,36.60
2024-04-26T01:13:40.130Z,36.70
2024-04-26T01:18:45.147Z,37.00
2024-04-26T01:23:50.629Z,36.70
2024-04-26T01:28:58.193Z,36.90
2024-04-26T01:34:03.105Z,37.30
2024-04-26T01:39:08.226Z,36.90
2024-04-26T01:44:17.219Z,36.80
2024-04-26T01:49:23.077Z,37.20
2024-04-26T01:54:28.430Z,36.90
2024-04-26T01:59:36.035Z,37.00
2024-04-26T02:04:40.959Z,37.30
2024-04-26T02:09:45.887Z,36.90
2024-04-26T02:14:53.561Z,37.00
2024-04-26T02:19:58.774Z,37.40
2024-04-26T02:25:04.000Z,36.90
2024-04-26T02:30:12.748Z,36.90
2024-04-26T02:35:18.168Z,37.10
2024-04-26T02:40:23.256Z,36.80
2024-04-26T02:45:30.817Z,36.90
2024-04-26T02:50:35.762Z,37.20
2024-04-26T02:55:41.250Z,36.70
2024-04-26T03:00:49.008Z,36.70
2024-04-26T03:05:53.955Z,36.80
2024-04-26T03:10:58.857Z,36.50
2024-04-26T03:16:06.515Z,36.40
2024-04-26T03:21:11.681Z,36.40
2024-04-26T03:26:16.676Z,36.20
2024-04-26T03:31:27.110Z,36.30
2024-04-26T03:36:31.995Z,37.00
2024-04-26T03:41:36.951Z,36.60
2024-04-26T03:46:47.067Z,36.70
2024-04-26T03:51:51.939Z,36.90
2024-04-26T03:56:56.858Z,36.50
2024-04-26T04:02:04.973Z,36.50
2024-04-26T04:07:09.854Z,36.80
2024-04-26T04:12:15.692Z,36.50
2024-04-26T04:17:23.702Z,36.40
2024-04-26T04:22:28.697Z,36.50
2024-04-26T04:27:33.627Z,36.20
2024-04-26T04:32:41.301Z,35.90
2024-04-26T04:37:46.229Z,36.00
2024-04-26T04:42:51.231Z,36.10
2024-04-26T04:47:59.177Z,36.40
2024-04-26T04:53:04.278Z,36.90
2024-04-26T04:58:09.238Z,36.80
2024-04-26T05:03:17.987Z,36.70
2024-04-26T05:08:23.125Z,37.20
2024-04-26T05:13:28.070Z,36.80
2024-04-26T05:18:36.055Z,36.70
2024-04-26T05:23:41.150Z,37.60
2024-04-26T05:28:46.171Z,37.70
2024-04-26T05:33:54.028Z,37.70
2024-04-26T05:38:59.720Z,37.90
2024-04-26T05:44:04.974Z,37.40
2024-04-26T05:49:12.880Z,37.20
2024-04-26T05:54:18.066Z,37.40
2024-04-26T05:59:23.240Z,37.40
2024-04-26T06:04:30.971Z,37.40
2024-04-26T06:09:37.067Z,37.70
2024-04-26T06:14:42.420Z,37.60
2024-04-26T06:19:49.996Z,37.70
2024-04-26T06:24:54.952Z,38.00
2024-04-26T06:29:59.935Z,37.70
2024-04-26T06:35:09.057Z,37.90
2024-04-26T06:40:15.379Z,38.20
2024-04-26T06:45:20.386Z,38.80
2024-04-26T06:50:28.149Z,38.10
2024-04-26T06:55:33.106Z,38.40
2024-04-26T07:00:38.004Z,38.20
2024-04-26T07:05:46.475Z,37.90
2024-04-26T07:10:51.429Z,36.90
2024-04-26T07:16:01.403Z,36.90
2024-04-26T07:21:15.160Z,36.70
2024-04-26T07:26:21.521Z,36.60
2024-04-26T07:31:26.486Z,36.70
2024-04-26T07:36:34.005Z,36.70
2024-04-26T07:41:39.154Z,36.40
2024-04-26T07:46:44.084Z,36.60
2024-04-26T07:51:53.077Z,36.50
2024-04-26T07:56:58.051Z,36.10
2024-04-26T08:02:02.970Z,36.00
2024-04-26T08:07:10.614Z,35.00
2024-04-26T08:12:15.659Z,34.50
2024-04-26T08:17:20.693Z,34.90
2024-04-26T08:22:29.911Z,34.90
2024-04-26T08:27:35.446Z,33.70
2024-04-26T08:32:50.354Z,34.00
2024-04-26T08:38:01.347Z,33.50
2024-04-26T08:43:07.445Z,32.40
2024-04-26T08:48:13.822Z,33.30
2024-04-26T08:53:23.366Z,32.80
2024-04-26T08:58:28.628Z,31.50
2024-04-26T09:03:33.819Z,31.90
2024-04-26T09:08:41.558Z,31.60
2024-04-26T09:13:46.848Z,31.20
2024-04-26T09:18:52.042Z,31.70
2024-04-26T09:23:59.823Z,31.70
2024-04-26T09:29:05.476Z,31.40
2024-04-26T09:34:11.170Z,31.90
2024-04-26T09:39:19.135Z,31.90
2024-04-26T09:44:25.275Z,30.50
2024-04-26T09:49:30.830Z,31.20
2024-04-26T09:54:38.609Z,31.20
2024-04-26T09:59:44.678Z,30.20
2024-04-26T10:04:51.564Z,30.20
2024-04-26T10:10:01.038Z,30.30
2024-04-26T10:15:14.212Z,29.00
2024-04-26T10:20:21.752Z,28.60
2024-04-26T10:25:29.551Z,30.50
2024-04-26T10:30:35.123Z,30.10
2024-04-26T10:35:40.095Z,29.60
2024-04-26T10:40:51.978Z,30.00
2024-04-26T10:45:57.260Z,27.90
2024-04-26T10:51:11.308Z,28.70
2024-04-26T10:56:23.992Z,27.30
2024-04-26T11:01:29.738Z,26.10
2024-04-26T11:06:36.832Z,28.10
2024-04-26T11:11:57.073Z,27.80
2024-04-26T11:17:02.182Z,26.80
2024-04-26T11:22:08.020Z,27.80
2024-04-26T11:27:19.546Z,28.40
2024-04-26T11:32:24.724Z,26.60
2024-04-26T11:37:30.457Z,28.50
2024-04-26T11:42:38.320Z,27.90
2024-04-26T11:47:43.408Z,26.50
2024-04-26T11:52:48.470Z,27.50
2024-04-26T11:57:56.083Z,27.10
2024-04-26T12:03:01.248Z,26.10
2024-04-26T12:08:07.235Z,26.60
2024-04-26T12:13:14.893Z,26.60
2024-04-26T12:18:20.082Z,25.60
2024-04-26T12:23:25.349Z,26.40
2024-04-26T12:28:32.952Z,26.20
2024-04-26T12:33:37.964Z,25.30
2024-04-26T12:38:42.998Z,26.60
2024-04-26T12:43:50.706Z,26.60
2024-04-26T12:48:56.950Z,25.00
2024-04-26T12:54:02.015Z,26.00
2024-04-26T12:59:12.251Z,25.60
2024-04-26T13:04:19.080Z,24.30
2024-04-26T13:09:25.171Z,25.20
2024-04-26T13:14:32.969Z,25.00
2024-04-26T13:19:38.073Z,24.10
2024-04-26T13:24:43.582Z,24.80
2024-04-26T13:29:51.290Z,24.80
2024-04-26T13:34:58.721Z,24.20
2024-04-26T13:40:04.777Z,24.70
2024-04-26T13:45:14.190Z,24.70
2024-04-26T13:50:19.468Z,23.40
2024-04-26T13:55:24.590Z,24.70
2024-04-26T14:00:32.195Z,24.40
2024-04-26T14:05:37.338Z,23.60
2024-04-26T14:10:42.376Z,24.10
2024-04-26T14:15:49.945Z,24.20
2024-04-26T14:20:54.971Z,23.10
2024-04-26T14:26:01.335Z,24.00
2024-04-26T14:31:09.419Z,23.70
2024-04-26T14:36:14.569Z,22.90
2024-04-26T14:41:19.487Z,23.50
2024-04-26T14:46:27.235Z,23.20
2024-04-26T14:51:32.158Z,22.50
2024-04-26T14:56:37.827Z,23.00
2024-04-26T15:01:45.372Z,22.80
2024-04-26T15:06:50.342Z,22.10
2024-04-26T15:11:55.532Z,22.90
2024-04-26T15:17:03.198Z,23.00
2024-04-26T15:22:08.547Z,22.10
2024-04-26T15:27:13.454Z,23.30
2024-04-26T15:32:21.072Z,22.90
2024-04-26T15:37:26.101Z,22.10
2024-04-26T15:42:31.004Z,23.10
2024-04-26T15:47:41.034Z,22.90
2024-04-26T15:52:46.411Z,22.10
2024-04-26T15:57:51.381Z,22.60
2024-04-26T16:02:59.237Z,22.60
2024-04-26T16:08:05.479Z,22.30
2024-04-26T16:13:10.483Z,22.70
2024-04-26T16:18:18.091Z,22.90
2024-04-26T16:23:22.987Z,22.20
2024-04-26T16:28:27.893Z,22.70
2024-04-26T16:33:36.487Z,22.50
2024-04-26T16:38:41.420Z,21.80
2024-04-26T16:43:47.990Z,22.40
2024-04-26T16:48:58.416Z,22.90
2024-04-26T16:54:05.521Z,22.40
2024-04-26T16:59:10.710Z,22.60
2024-04-26T17:04:18.272Z,22.80
2024-04-26T17:09:23.187Z,22.50
2024-04-26T17:14:28.246Z,23.50
2024-04-26T17:19:35.816Z,22.90
2024-04-26T17:24:41.183Z,22.60
2024-04-26T17:29:46.095Z,22.90
2024-04-26T17:34:53.646Z,23.00
2024-04-26T17:40:03.911Z,23.00
2024-04-26T17:45:09.421Z,22.70
2024-04-26T17:50:16.964Z,22.90
2024-04-26T17:55:21.872Z,22.70
2024-04-26T18:00:29.190Z,23.10
2024-04-26T18:05:36.727Z,23.30
2024-04-26T18:10:41.720Z,23.40
2024-04-26T18:15:46.678Z,23.80
2024-04-26T18:20:54.452Z,23.90
2024-04-26T18:25:59.618Z,24.30
2024-04-26T18:31:06.888Z,24.50
2024-04-26T18:36:21.422Z,24.60
2024-04-26T18:41:26.385Z,24.50
2024-04-26T18:46:31.346Z,24.40
2024-04-26T18:51:43.234Z,24.40
2024-04-26T18:56:50.964Z,24.30
2024-04-26T19:01:57.814Z,24.20
2024-04-26T19:07:05.588Z,24.20
2024-04-26T19:12:11.243Z,24.10
2024-04-26T19:17:16.249Z,24.40
2024-04-26T19:22:24.228Z,24.70
2024-04-26T19:27:29.269Z,25.00
2024-04-26T19:32:34.338Z,25.00
2024-04-26T19:37:42.036Z,25.10
2024-04-26T19:42:49.094Z,25.20
2024-04-26T19:47:56.817Z,25.20
2024-04-26T19:53:20.910Z,25.20
2024-04-26T19:58:25.879Z,25.40
2024-04-26T20:03:30.921Z,25.30
2024-04-26T20:08:38.506Z,25.30
2024-04-26T20:13:43.744Z,25.70
2024-04-26T20:18:51.019Z,25.50
2024-04-26T20:23:58.713Z,25.50
2024-04-26T20:29:03.771Z,25.90
2024-04-26T20:34:08.809Z,25.70
2024-04-26T20:39:16.466Z,25.60
2024-04-26T20:44:21.495Z,25.70
2024-04-26T20:49:26.463Z,25.60
2024-04-26T20:54:34.188Z,25.70
2024-04-26T20:59:39.100Z,26.20
2024-04-26T21:04:44.088Z,26.30
2024-04-26T21:09:51.769Z,26.40
2024-04-26T21:14:56.928Z,27.00
2024-04-26T21:20:02.230Z,26.80
2024-04-26T21:25:11.090Z,26.90
2024-04-26T21:30:16.283Z,27.00
2024-04-26T21:35:21.881Z,26.70
2024-04-26T21:40:30.804Z,26.90
2024-04-26T21:45:35.771Z,27.50
2024-04-26T21:50:40.688Z,27.30
2024-04-26T21:55:48.670Z,27.40
2024-04-26T22:00:53.649Z,27.80
2024-04-26T22:05:58.573Z,27.30
2024-04-26T22:11:06.360Z,27.30
2024-04-26T22:16:11.312Z,27.60
2024-04-26T22:21:16.202Z,27.20
2024-04-26T22:26:23.841Z,27.30
2024-04-26T22:31:29.938Z,27.80
2024-04-26T22:36:35.698Z,27.40
2024-04-26T22:41:43.729Z,27.70
2024-04-26T22:46:48.671Z,28.20
2024-04-26T22:51:54.080Z,28.00
2024-04-26T22:57:01.723Z,28.20
2024-04-26T23:02:06.745Z,28.60
2024-04-26T23:07:11.716Z,28.20
2024-04-26T23:12:19.451Z,28.20
2024-04-26T23:17:24.582Z,28.60
2024-04-26T23:22:29.542Z,28.30
2024-04-26T23:27:37.076Z,28.70
2024-04-26T23:32:42.161Z,29.30
2024-04-26T23:37:47.149Z,29.10
2024-04-26T23:42:54.987Z,29.10
2024-04-26T23:47:59.925Z,29.10
2024-04-26T23:53:05.803Z,29.00
2024-04-26T23:58:13.440Z,29.00
